sensor_id;sensor_type;location;lat;lon;timestamp;pressure;altitude;pressure_sealevel;temperature;humidity
29315;BME280;16320;53.954;9.506;2023-04-03T00:02:26;103109.44;;;0.59;100.00
29315;BME280;16320;53.954;9.506;2023-04-03T00:05:31;103117.25;;;0.61;100.00
29315;BME280;16320;53.954;9.506;2023-04-03T00:08:35;103126.72;;;0.60;100.00
29315;BME280;16320;53.954;9.506;2023-04-03T00:11:40;103129.25;;;0.59;100.00
29315;BME280;16320;53.954;9.506;2023-04-03T00:14:44;103123.91;;;0.52;100.00
29315;BME280;16320;53.954;9.506;2023-04-03T00:17:49;103129.75;;;0.47;100.00
29315;BME280;16320;53.954;9.506;2023-04-03T00:20:54;103128.03;;;0.46;100.00
29315;BME280;16320;53.954;9.506;2023-04-03T00:23:58;103127.22;;;0.48;100.00
29315;BME280;16320;53.954;9.506;2023-04-03T00:27:02;103128.91;;;0.46;100.00
29315;BME280;16320;53.954;9.506;2023-04-03T00:30:09;103126.31;;;0.46;100.00
29315;BME280;16320;53.954;9.506;2023-04-03T00:33:14;103136.66;;;0.46;100.00
29315;BME280;16320;53.954;9.506;2023-04-03T00:36:18;103128.91;;;0.46;100.00
29315;BME280;16320;53.954;9.506;2023-04-03T00:39:23;103128.03;;;0.46;100.00
29315;BME280;16320;53.954;9.506;2023-04-03T00:42:28;103133.16;;;0.44;100.00
29315;BME280;16320;53.954;9.506;2023-04-03T00:46:00;103123.72;;;0.46;100.00
29315;BME280;16320;53.954;9.506;2023-04-03T00:49:04;103131.34;;;0.42;100.00
29315;BME280;16320;53.954;9.506;2023-04-03T00:52:33;103133.94;;;0.42;100.00
29315;BME280;16320;53.954;9.506;2023-04-03T00:55:38;103127.03;;;0.42;100.00
29315;BME280;16320;53.954;9.506;2023-04-03T00:58:51;103131.38;;;0.43;100.00
29315;BME280;16320;53.954;9.506;2023-04-03T01:01:58;103130.56;;;0.44;100.00
29315;BME280;16320;53.954;9.506;2023-04-03T01:05:04;103129.72;;;0.45;100.00
29315;BME280;16320;53.954;9.506;2023-04-03T01:08:09;103126.03;;;0.37;100.00
29315;BME280;16320;53.954;9.506;2023-04-03T01:11:13;103139.06;;;0.40;100.00
29315;BME280;16320;53.954;9.506;2023-04-03T01:14:17;103127.84;;;0.40;100.00
29315;BME280;16320;53.954;9.506;2023-04-03T01:24:52;103131.00;;;0.31;100.00
29315;BME280;16320;53.954;9.506;2023-04-03T01:27:51;103130.19;;;0.32;100.00
29315;BME280;16320;53.954;9.506;2023-04-03T01:31:22;103131.88;;;0.30;100.00
29315;BME280;16320;53.954;9.506;2023-04-03T01:34:29;103129.47;;;0.36;100.00
29315;BME280;16320;53.954;9.506;2023-04-03T01:37:34;103129.50;;;0.38;100.00
29315;BME280;16320;53.954;9.506;2023-04-03T01:40:37;103126.88;;;0.36;100.00
29315;BME280;16320;53.954;9.506;2023-04-03T01:43:42;103119.00;;;0.31;100.00
29315;BME280;16320;53.954;9.506;2023-04-03T01:46:47;103120.66;;;0.29;100.00
29315;BME280;16320;53.954;9.506;2023-04-03T01:49:51;103124.84;;;0.26;100.00
29315;BME280;16320;53.954;9.506;2023-04-03T01:52:56;103115.31;;;0.23;100.00
29315;BME280;16320;53.954;9.506;2023-04-03T01:56:00;103113.50;;;0.21;100.00
29315;BME280;16320;53.954;9.506;2023-04-03T01:59:04;103121.91;;;0.13;100.00
29315;BME280;16320;53.954;9.506;2023-04-03T02:02:09;103123.47;;;0.08;100.00
29315;BME280;16320;53.954;9.506;2023-04-03T02:05:13;103128.69;;;0.10;100.00
29315;BME280;16320;53.954;9.506;2023-04-03T02:08:18;103129.47;;;0.07;100.00
29315;BME280;16320;53.954;9.506;2023-04-03T02:11:22;103133.81;;;0.08;100.00
29315;BME280;16320;53.954;9.506;2023-04-03T02:14:26;103135.75;;;0.15;100.00
29315;BME280;16320;53.954;9.506;2023-04-03T02:17:31;103137.47;;;0.15;100.00
29315;BME280;16320;53.954;9.506;2023-04-03T02:20:36;103136.63;;;0.16;100.00
29315;BME280;16320;53.954;9.506;2023-04-03T02:23:40;103145.44;;;0.23;100.00
29315;BME280;16320;53.954;9.506;2023-04-03T02:26:45;103135.94;;;0.22;100.00
29315;BME280;16320;53.954;9.506;2023-04-03T02:29:49;103135.94;;;0.22;100.00
29315;BME280;16320;53.954;9.506;2023-04-03T02:32:54;103135.09;;;0.23;100.00
29315;BME280;16320;53.954;9.506;2023-04-03T02:35:59;103138.38;;;0.17;100.00
29315;BME280;16320;53.954;9.506;2023-04-03T02:39:04;103140.00;;;0.13;100.00
29315;BME280;16320;53.954;9.506;2023-04-03T02:42:08;103146.91;;;0.14;100.00
29315;BME280;16320;53.954;9.506;2023-04-03T02:45:12;103148.75;;;0.18;100.00
29315;BME280;16320;53.954;9.506;2023-04-03T02:48:17;103141.06;;;0.20;100.00
29315;BME280;16320;53.954;9.506;2023-04-03T02:51:21;103135.78;;;0.17;100.00
29315;BME280;16320;53.954;9.506;2023-04-03T02:54:27;103137.38;;;0.12;100.00
29315;BME280;16320;53.954;9.506;2023-04-03T02:57:34;103132.28;;;0.15;100.00
29315;BME280;16320;53.954;9.506;2023-04-03T03:00:39;103133.16;;;0.15;100.00
29315;BME280;16320;53.954;9.506;2023-04-03T03:03:44;103138.22;;;0.12;100.00
29315;BME280;16320;53.954;9.506;2023-04-03T03:06:48;103140.09;;;0.16;100.00
29315;BME280;16320;53.954;9.506;2023-04-03T03:09:53;103136.75;;;0.21;100.00
29315;BME280;16320;53.954;9.506;2023-04-03T03:12:57;103141.81;;;0.17;100.00
29315;BME280;16320;53.954;9.506;2023-04-03T03:16:02;103145.34;;;0.20;100.00
29315;BME280;16320;53.954;9.506;2023-04-03T03:19:06;103142.78;;;0.20;100.00
29315;BME280;16320;53.954;9.506;2023-04-03T03:22:11;103134.03;;;0.16;100.00
29315;BME280;16320;53.954;9.506;2023-04-03T03:25:16;103140.09;;;0.16;100.00
29315;BME280;16320;53.954;9.506;2023-04-03T03:28:20;103134.13;;;0.19;100.00
29315;BME280;16320;53.954;9.506;2023-04-03T03:31:24;103135.78;;;0.17;100.00
29315;BME280;16320;53.954;9.506;2023-04-03T03:34:29;103135.03;;;0.20;100.00
29315;BME280;16320;53.954;9.506;2023-04-03T03:37:33;103133.25;;;0.18;100.00
29315;BME280;16320;53.954;9.506;2023-04-03T03:40:38;103134.03;;;0.16;100.00
29315;BME280;16320;53.954;9.506;2023-04-03T03:43:43;103122.72;;;0.12;100.00
29315;BME280;16320;53.954;9.506;2023-04-03T03:46:47;103126.13;;;0.10;100.00
29315;BME280;16320;53.954;9.506;2023-04-03T03:49:51;103131.28;;;0.10;100.00
29315;BME280;16320;53.954;9.506;2023-04-03T03:52:55;103133.88;;;0.10;100.00
29315;BME280;16320;53.954;9.506;2023-04-03T03:56:00;103131.22;;;0.08;100.00
29315;BME280;16320;53.954;9.506;2023-04-03T03:59:04;103139.72;;;0.04;100.00
29315;BME280;16320;53.954;9.506;2023-04-03T04:02:09;103139.72;;;0.04;100.00
29315;BME280;16320;53.954;9.506;2023-04-03T04:05:14;103145.69;;;0.03;100.00
29315;BME280;16320;53.954;9.506;2023-04-03T04:08:18;103146.53;;;0.02;100.00
29315;BME280;16320;53.954;9.506;2023-04-03T04:11:23;103143.97;;;0.02;100.00
29315;BME280;16320;53.954;9.506;2023-04-03T04:14:27;103143.91;;;0.01;100.00
29315;BME280;16320;53.954;9.506;2023-04-03T04:17:32;103142.09;;;-0.02;100.00
29315;BME280;16320;53.954;9.506;2023-04-03T04:20:36;103144.63;;;-0.04;100.00
29315;BME280;16320;53.954;9.506;2023-04-03T04:23:40;103141.06;;;-0.07;100.00
29315;BME280;16320;53.954;9.506;2023-04-03T04:26:45;103144.47;;;-0.08;100.00
29315;BME280;16320;53.954;9.506;2023-04-03T04:29:49;103146.16;;;-0.10;100.00
29315;BME280;16320;53.954;9.506;2023-04-03T04:32:54;103152.13;;;-0.13;100.00
29315;BME280;16320;53.954;9.506;2023-04-03T04:35:58;103149.47;;;-0.14;100.00
29315;BME280;16320;53.954;9.506;2023-04-03T04:39:03;103149.38;;;-0.17;100.00
29315;BME280;16320;53.954;9.506;2023-04-03T04:42:07;103148.41;;;-0.21;100.00
29315;BME280;16320;53.954;9.506;2023-04-03T04:45:19;103145.72;;;-0.24;100.00
29315;BME280;16320;53.954;9.506;2023-04-03T04:48:23;103152.56;;;-0.25;100.00
29315;BME280;16320;53.954;9.506;2023-04-03T04:51:28;103158.53;;;-0.27;100.00
29315;BME280;16320;53.954;9.506;2023-04-03T04:54:40;103159.34;;;-0.28;100.00
29315;BME280;16320;53.954;9.506;2023-04-03T04:57:45;103167.97;;;-0.28;100.00
29315;BME280;16320;53.954;9.506;2023-04-03T05:00:49;103168.81;;;-0.29;100.00
29315;BME280;16320;53.954;9.506;2023-04-03T05:03:54;103163.72;;;-0.27;100.00
29315;BME280;16320;53.954;9.506;2023-04-03T05:06:59;103172.38;;;-0.25;100.00
29315;BME280;16320;53.954;9.506;2023-04-03T05:10:04;103173.34;;;-0.22;100.00
29315;BME280;16320;53.954;9.506;2023-04-03T05:13:09;103172.56;;;-0.19;100.00
29315;BME280;16320;53.954;9.506;2023-04-03T05:16:13;103171.69;;;-0.20;100.00
29315;BME280;16320;53.954;9.506;2023-04-03T05:19:19;103177.75;;;-0.19;100.00
29315;BME280;16320;53.954;9.506;2023-04-03T05:22:24;103177.78;;;-0.17;100.00
29315;BME280;16320;53.954;9.506;2023-04-03T05:25:28;103188.28;;;-0.13;100.00
29315;BME280;16320;53.954;9.506;2023-04-03T05:28:32;103192.66;;;-0.10;100.00
29315;BME280;16320;53.954;9.506;2023-04-03T05:31:37;103192.75;;;-0.07;100.00
29315;BME280;16320;53.954;9.506;2023-04-03T05:34:42;103192.75;;;-0.07;100.00
29315;BME280;16320;53.954;9.506;2023-04-03T05:37:46;103191.00;;;-0.08;100.00
29315;BME280;16320;53.954;9.506;2023-04-03T05:40:50;103198.78;;;-0.07;100.00
29315;BME280;16320;53.954;9.506;2023-04-03T05:43:55;103204.00;;;-0.05;100.00
29315;BME280;16320;53.954;9.506;2023-04-03T05:46:59;103207.53;;;-0.03;100.00
29315;BME280;16320;53.954;9.506;2023-04-03T05:50:04;103201.53;;;-0.02;100.00
29315;BME280;16320;53.954;9.506;2023-04-03T05:53:22;103208.56;;;0.02;100.00
29315;BME280;16320;53.954;9.506;2023-04-03T05:56:28;103206.91;;;0.04;100.00
29315;BME280;16320;53.954;9.506;2023-04-03T05:59:32;103217.22;;;0.04;100.00
29315;BME280;16320;53.954;9.506;2023-04-03T06:02:36;103215.56;;;0.06;100.00
29315;BME280;16320;53.954;9.506;2023-04-03T06:05:41;103201.84;;;0.07;100.00
29315;BME280;16320;53.954;9.506;2023-04-03T06:08:46;103208.78;;;0.08;100.00
29315;BME280;16320;53.954;9.506;2023-04-03T06:11:50;103221.75;;;0.11;100.00
29315;BME280;16320;53.954;9.506;2023-04-03T06:14:56;103224.44;;;0.14;100.00
29315;BME280;16320;53.954;9.506;2023-04-03T06:18:00;103227.22;;;0.21;100.00
29315;BME280;16320;53.954;9.506;2023-04-03T06:21:05;103230.78;;;0.24;100.00
29315;BME280;16320;53.954;9.506;2023-04-03T06:24:16;103230.13;;;0.30;100.00
29315;BME280;16320;53.954;9.506;2023-04-03T06:27:20;103231.94;;;0.34;100.00
29315;BME280;16320;53.954;9.506;2023-04-03T06:30:25;103227.88;;;0.42;100.00
29315;BME280;16320;53.954;9.506;2023-04-03T06:33:29;103231.56;;;0.49;100.00
29315;BME280;16320;53.954;9.506;2023-04-03T06:36:34;103233.50;;;0.56;100.00
29315;BME280;16320;53.954;9.506;2023-04-03T06:39:38;103243.13;;;0.62;100.00
29315;BME280;16320;53.954;9.506;2023-04-03T06:42:43;103237.22;;;0.66;100.00
29315;BME280;16320;53.954;9.506;2023-04-03T06:45:47;103241.75;;;0.73;100.00
29315;BME280;16320;53.954;9.506;2023-04-03T06:48:54;103241.13;;;0.80;100.00
29315;BME280;16320;53.954;9.506;2023-04-03T06:51:58;103242.22;;;0.88;100.00
29315;BME280;16320;53.954;9.506;2023-04-03T06:55:06;103245.94;;;0.98;100.00
29315;BME280;16320;53.954;9.506;2023-04-03T06:58:11;103253.13;;;1.08;100.00
29315;BME280;16320;53.954;9.506;2023-04-03T07:01:17;103251.66;;;1.18;100.00
29315;BME280;16320;53.954;9.506;2023-04-03T07:04:23;103260.63;;;1.30;100.00
29315;BME280;16320;53.954;9.506;2023-04-03T07:07:28;103260.88;;;1.39;100.00
29315;BME280;16320;53.954;9.506;2023-04-03T07:10:32;103260.28;;;1.49;100.00
29315;BME280;16320;53.954;9.506;2023-04-03T07:13:37;103268.38;;;1.61;100.00
29315;BME280;16320;53.954;9.506;2023-04-03T07:16:42;103266.88;;;1.70;100.00
29315;BME280;16320;53.954;9.506;2023-04-03T07:19:47;103265.28;;;1.75;100.00
29315;BME280;16320;53.954;9.506;2023-04-03T07:22:51;103265.59;;;1.87;100.00
29315;BME280;16320;53.954;9.506;2023-04-03T07:25:55;103268.44;;;1.98;100.00
29315;BME280;16320;53.954;9.506;2023-04-03T07:29:00;103263.50;;;2.07;100.00
29315;BME280;16320;53.954;9.506;2023-04-03T07:32:05;103271.66;;;2.24;100.00
29315;BME280;16320;53.954;9.506;2023-04-03T07:35:10;103267.66;;;2.37;100.00
29315;BME280;16320;53.954;9.506;2023-04-03T07:38:15;103271.34;;;2.47;100.00
29315;BME280;16320;53.954;9.506;2023-04-03T07:41:20;103263.03;;;2.62;100.00
29315;BME280;16320;53.954;9.506;2023-04-03T07:44:25;103262.66;;;2.86;100.00
29315;BME280;16320;53.954;9.506;2023-04-03T07:47:30;103259.44;;;2.96;100.00
29315;BME280;16320;53.954;9.506;2023-04-03T07:50:35;103256.28;;;3.11;100.00
29315;BME280;16320;53.954;9.506;2023-04-03T07:53:40;103250.56;;;3.29;100.00
29315;BME280;16320;53.954;9.506;2023-04-03T07:56:45;103241.31;;;3.43;100.00
29315;BME280;16320;53.954;9.506;2023-04-03T07:59:49;103226.81;;;3.56;100.00
29315;BME280;16320;53.954;9.506;2023-04-03T08:02:53;103224.44;;;3.70;100.00
29315;BME280;16320;53.954;9.506;2023-04-03T08:06:03;103217.75;;;3.84;100.00
29315;BME280;16320;53.954;9.506;2023-04-03T08:09:10;103195.34;;;3.93;100.00
29315;BME280;16320;53.954;9.506;2023-04-03T08:12:14;103186.81;;;4.00;100.00
29315;BME280;16320;53.954;9.506;2023-04-03T08:15:19;103185.28;;;4.14;100.00
29315;BME280;16320;53.954;9.506;2023-04-03T08:18:25;103180.19;;;4.24;100.00
29315;BME280;16320;53.954;9.506;2023-04-03T08:21:30;103180.28;;;4.30;100.00
29315;BME280;16320;53.954;9.506;2023-04-03T08:24:35;103176.91;;;4.37;100.00
29315;BME280;16320;53.954;9.506;2023-04-03T08:27:42;103171.69;;;4.34;100.00
29315;BME280;16320;53.954;9.506;2023-04-03T08:30:46;103165.84;;;4.50;100.00
29315;BME280;16320;53.954;9.506;2023-04-03T08:33:50;103157.22;;;4.56;100.00
29315;BME280;16320;53.954;9.506;2023-04-03T08:36:55;103160.69;;;4.56;100.00
29315;BME280;16320;53.954;9.506;2023-04-03T08:39:59;103163.41;;;4.66;100.00
29315;BME280;16320;53.954;9.506;2023-04-03T08:53:10;103168.19;;;5.02;100.00
29315;BME280;16320;53.954;9.506;2023-04-03T08:56:18;103161.22;;;5.01;100.00
29315;BME280;16320;53.954;9.506;2023-04-03T08:59:29;103154.53;;;5.31;100.00
29315;BME280;16320;53.954;9.506;2023-04-03T09:02:54;103162.34;;;5.26;100.00
29315;BME280;16320;53.954;9.506;2023-04-03T09:06:13;103146.78;;;5.36;100.00
29315;BME280;16320;53.954;9.506;2023-04-03T09:09:39;103143.41;;;5.49;100.00
29315;BME280;16320;53.954;9.506;2023-04-03T09:12:53;103153.03;;;5.55;100.00
29315;BME280;16320;53.954;9.506;2023-04-03T09:16:02;103143.47;;;5.58;100.00
29315;BME280;16320;53.954;9.506;2023-04-03T09:22:28;103141.03;;;5.81;100.00
29315;BME280;16320;53.954;9.506;2023-04-03T09:25:38;103138.44;;;5.77;100.00
29315;BME280;16320;53.954;9.506;2023-04-03T09:28:43;103147.19;;;5.85;100.00
29315;BME280;16320;53.954;9.506;2023-04-03T09:32:00;103149.91;;;6.00;100.00
29315;BME280;16320;53.954;9.506;2023-04-03T09:35:27;103150.84;;;6.12;100.00
29315;BME280;16320;53.954;9.506;2023-04-03T09:39:05;103154.06;;;5.80;100.00
29315;BME280;16320;53.954;9.506;2023-04-03T09:42:23;103141.94;;;5.83;100.00
29315;BME280;16320;53.954;9.506;2023-04-03T09:45:34;103141.19;;;5.98;100.00
29315;BME280;16320;53.954;9.506;2023-04-03T09:48:39;103135.09;;;5.99;100.00
29315;BME280;16320;53.954;9.506;2023-04-03T09:52:27;103136.13;;;6.23;100.00
29315;BME280;16320;53.954;9.506;2023-04-03T09:55:33;103131.84;;;6.40;100.00
29315;BME280;16320;53.954;9.506;2023-04-03T09:59:14;103128.47;;;6.63;100.00
29315;BME280;16320;53.954;9.506;2023-04-03T10:02:45;103123.25;;;6.63;100.00
29315;BME280;16320;53.954;9.506;2023-04-03T10:05:49;103117.16;;;6.69;100.00
29315;BME280;16320;53.954;9.506;2023-04-03T10:09:03;103115.44;;;6.78;100.00
29315;BME280;16320;53.954;9.506;2023-04-03T10:12:10;103109.38;;;6.95;100.00
29315;BME280;16320;53.954;9.506;2023-04-03T10:15:17;103105.00;;;6.88;100.00
29315;BME280;16320;53.954;9.506;2023-04-03T10:18:44;103100.69;;;6.99;100.00
29315;BME280;16320;53.954;9.506;2023-04-03T10:22:02;103101.56;;;7.09;100.00
29315;BME280;16320;53.954;9.506;2023-04-03T10:25:32;103091.97;;;7.09;100.00
29315;BME280;16320;53.954;9.506;2023-04-03T10:36:22;103084.94;;;7.79;100.00
29315;BME280;16320;53.954;9.506;2023-04-03T10:39:44;103082.25;;;8.05;100.00
29315;BME280;16320;53.954;9.506;2023-04-03T10:43:42;103077.84;;;8.21;100.00
29315;BME280;16320;53.954;9.506;2023-04-03T10:46:55;103077.78;;;8.37;92.24
29315;BME280;16320;53.954;9.506;2023-04-03T10:50:33;103064.63;;;8.54;97.69
29315;BME280;16320;53.954;9.506;2023-04-03T10:57:28;103058.34;;;8.78;100.00
29315;BME280;16320;53.954;9.506;2023-04-03T11:00:47;103049.53;;;8.88;100.00
29315;BME280;16320;53.954;9.506;2023-04-03T11:03:58;103056.56;;;8.86;85.59
29315;BME280;16320;53.954;9.506;2023-04-03T11:07:15;103050.50;;;8.76;100.00
29315;BME280;16320;53.954;9.506;2023-04-03T11:10:50;103039.03;;;8.90;100.00
29315;BME280;16320;53.954;9.506;2023-04-03T11:14:11;103025.06;;;8.92;100.00
29315;BME280;16320;53.954;9.506;2023-04-03T11:17:27;103020.72;;;8.87;79.38
29315;BME280;16320;53.954;9.506;2023-04-03T11:20:36;103024.38;;;8.61;84.90
29315;BME280;16320;53.954;9.506;2023-04-03T11:23:41;103028.72;;;8.68;74.27
29315;BME280;16320;53.954;9.506;2023-04-03T11:26:55;103027.81;;;8.71;74.23
29315;BME280;16320;53.954;9.506;2023-04-03T11:30:01;103023.50;;;8.67;87.98
29315;BME280;16320;53.954;9.506;2023-04-03T11:36:31;103014.53;;;8.98;100.00
29315;BME280;16320;53.954;9.506;2023-04-03T11:39:50;103003.81;;;9.23;99.37
29315;BME280;16320;53.954;9.506;2023-04-03T11:46:07;103001.19;;;9.25;92.75
29315;BME280;16320;53.954;9.506;2023-04-03T11:53:01;102981.84;;;9.33;83.50
29315;BME280;16320;53.954;9.506;2023-04-03T11:56:28;102993.09;;;9.45;100.00
29315;BME280;16320;53.954;9.506;2023-04-03T11:59:39;102984.94;;;9.71;100.00
29315;BME280;16320;53.954;9.506;2023-04-03T12:02:43;102984.13;;;9.64;85.70
29315;BME280;16320;53.954;9.506;2023-04-03T12:06:42;102989.22;;;9.80;94.56
29315;BME280;16320;53.954;9.506;2023-04-03T12:12:39;102976.78;;;9.93;92.41
29315;BME280;16320;53.954;9.506;2023-04-03T12:15:52;102967.81;;;10.11;86.15
29315;BME280;16320;53.954;9.506;2023-04-03T12:22:20;102964.81;;;10.38;74.62
29315;BME280;16320;53.954;9.506;2023-04-03T12:25:50;102968.00;;;9.95;80.57
29315;BME280;16320;53.954;9.506;2023-04-03T12:28:55;102969.25;;;9.65;83.46
29315;BME280;16320;53.954;9.506;2023-04-03T12:36:11;102960.06;;;9.28;94.07
29315;BME280;16320;53.954;9.506;2023-04-03T12:46:45;102952.34;;;11.04;59.80
29315;BME280;16320;53.954;9.506;2023-04-03T12:49:50;102946.38;;;11.41;75.23
29315;BME280;16320;53.954;9.506;2023-04-03T12:53:10;102937.13;;;11.22;82.45
29315;BME280;16320;53.954;9.506;2023-04-03T12:56:27;102944.53;;;11.46;83.33
29315;BME280;16320;53.954;9.506;2023-04-03T12:59:33;102947.50;;;10.79;84.72
29315;BME280;16320;53.954;9.506;2023-04-03T13:02:37;102955.53;;;10.13;79.53
29315;BME280;16320;53.954;9.506;2023-04-03T13:05:44;102951.00;;;9.57;85.49
29315;BME280;16320;53.954;9.506;2023-04-03T13:08:53;102949.63;;;9.21;86.62
29315;BME280;16320;53.954;9.506;2023-04-03T13:12:00;102949.97;;;8.85;100.00
29315;BME280;16320;53.954;9.506;2023-04-03T13:15:20;102941.00;;;9.11;97.83
29315;BME280;16320;53.954;9.506;2023-04-03T13:18:31;102944.53;;;9.83;97.60
29315;BME280;16320;53.954;9.506;2023-04-03T13:21:36;102939.41;;;10.92;99.78
29315;BME280;16320;53.954;9.506;2023-04-03T13:24:50;102939.28;;;11.45;68.83
29315;BME280;16320;53.954;9.506;2023-04-03T13:27:59;102945.63;;;10.88;76.93
29315;BME280;16320;53.954;9.506;2023-04-03T13:31:26;102935.03;;;10.91;65.58
29315;BME280;16320;53.954;9.506;2023-04-03T13:34:40;102935.63;;;11.53;80.74
29315;BME280;16320;53.954;9.506;2023-04-03T13:37:59;102935.06;;;12.22;67.39
29315;BME280;16320;53.954;9.506;2023-04-03T13:41:23;102925.41;;;12.91;63.17
29315;BME280;16320;53.954;9.506;2023-04-03T13:44:35;102919.19;;;12.94;53.51
29315;BME280;16320;53.954;9.506;2023-04-03T13:47:43;102928.69;;;11.92;55.70
29315;BME280;16320;53.954;9.506;2023-04-03T13:51:00;102922.88;;;10.84;60.14
29315;BME280;16320;53.954;9.506;2023-04-03T13:54:21;102924.88;;;10.13;76.41
29315;BME280;16320;53.954;9.506;2023-04-03T13:57:27;102920.16;;;9.73;65.19
29315;BME280;16320;53.954;9.506;2023-04-03T14:04:25;102913.75;;;10.55;100.00
29315;BME280;16320;53.954;9.506;2023-04-03T14:07:30;102901.16;;;11.21;79.57
29315;BME280;16320;53.954;9.506;2023-04-03T14:10:35;102905.94;;;11.45;96.24
29315;BME280;16320;53.954;9.506;2023-04-03T14:13:40;102905.38;;;11.31;77.17
29315;BME280;16320;53.954;9.506;2023-04-03T14:16:52;102901.75;;;10.90;86.80
29315;BME280;16320;53.954;9.506;2023-04-03T14:19:58;102900.97;;;10.85;83.05
29315;BME280;16320;53.954;9.506;2023-04-03T14:23:02;102902.66;;;10.37;72.07
29315;BME280;16320;53.954;9.506;2023-04-03T14:26:22;102906.59;;;10.05;91.61
29315;BME280;16320;53.954;9.506;2023-04-03T14:29:26;102896.75;;;10.20;83.22
29315;BME280;16320;53.954;9.506;2023-04-03T14:32:31;102897.88;;;11.09;87.10
29315;BME280;16320;53.954;9.506;2023-04-03T14:35:37;102899.78;;;11.46;66.68
29315;BME280;16320;53.954;9.506;2023-04-03T14:38:42;102894.63;;;10.95;75.06
29315;BME280;16320;53.954;9.506;2023-04-03T14:41:47;102899.28;;;10.26;84.60
29315;BME280;16320;53.954;9.506;2023-04-03T14:44:51;102897.34;;;9.80;86.04
29315;BME280;16320;53.954;9.506;2023-04-03T14:47:56;102901.53;;;9.25;95.36
29315;BME280;16320;53.954;9.506;2023-04-03T14:51:01;102890.78;;;9.45;100.00
29315;BME280;16320;53.954;9.506;2023-04-03T14:54:20;102890.19;;;10.50;95.61
29315;BME280;16320;53.954;9.506;2023-04-03T14:57:30;102886.66;;;11.85;91.55
29315;BME280;16320;53.954;9.506;2023-04-03T15:00:34;102885.38;;;13.08;61.11
29315;BME280;16320;53.954;9.506;2023-04-03T15:03:38;102872.84;;;13.48;57.88
29315;BME280;16320;53.954;9.506;2023-04-03T15:06:45;102870.13;;;14.34;52.18
29315;BME280;16320;53.954;9.506;2023-04-03T15:09:50;102869.59;;;14.76;43.85
29315;BME280;16320;53.954;9.506;2023-04-03T15:12:55;102866.88;;;14.26;50.82
29315;BME280;16320;53.954;9.506;2023-04-03T15:16:00;102865.13;;;14.78;42.80
29315;BME280;16320;53.954;9.506;2023-04-03T15:19:05;102861.66;;;13.40;45.50
29315;BME280;16320;53.954;9.506;2023-04-03T15:22:19;102867.28;;;12.27;52.39
29315;BME280;16320;53.954;9.506;2023-04-03T15:25:24;102859.03;;;12.05;55.19
29315;BME280;16320;53.954;9.506;2023-04-03T15:28:39;102864.75;;;12.22;65.04
29315;BME280;16320;53.954;9.506;2023-04-03T15:31:44;102859.63;;;12.52;51.12
29315;BME280;16320;53.954;9.506;2023-04-03T15:34:48;102859.03;;;12.41;51.00
29315;BME280;16320;53.954;9.506;2023-04-03T15:37:53;102852.94;;;12.39;48.22
29315;BME280;16320;53.954;9.506;2023-04-03T15:40:57;102857.59;;;11.92;55.28
29315;BME280;16320;53.954;9.506;2023-04-03T15:44:02;102856.25;;;11.72;56.02
29315;BME280;16320;53.954;9.506;2023-04-03T15:47:06;102852.84;;;11.67;57.85
29315;BME280;16320;53.954;9.506;2023-04-03T15:50:11;102860.31;;;11.46;65.87
29315;BME280;16320;53.954;9.506;2023-04-03T15:53:16;102852.25;;;11.95;62.78
29315;BME280;16320;53.954;9.506;2023-04-03T15:56:20;102848.91;;;12.24;54.70
29315;BME280;16320;53.954;9.506;2023-04-03T15:59:24;102846.88;;;11.99;55.39
29315;BME280;16320;53.954;9.506;2023-04-03T16:02:29;102863.00;;;11.43;58.36
29315;BME280;16320;53.954;9.506;2023-04-03T16:05:35;102856.88;;;10.51;67.68
29315;BME280;16320;53.954;9.506;2023-04-03T16:08:41;102852.53;;;9.92;71.58
29315;BME280;16320;53.954;9.506;2023-04-03T16:11:46;102863.66;;;9.49;79.59
29315;BME280;16320;53.954;9.506;2023-04-03T16:14:50;102864.00;;;9.21;76.92
29315;BME280;16320;53.954;9.506;2023-04-03T16:17:56;102859.97;;;8.88;80.20
29315;BME280;16320;53.954;9.506;2023-04-03T16:21:02;102860.34;;;8.49;88.63
29315;BME280;16320;53.954;9.506;2023-04-03T16:24:07;102854.28;;;8.38;100.00
29315;BME280;16320;53.954;9.506;2023-04-03T16:27:11;102873.34;;;8.58;100.00
29315;BME280;16320;53.954;9.506;2023-04-03T16:30:15;102864.38;;;8.84;100.00
29315;BME280;16320;53.954;9.506;2023-04-03T16:33:20;102862.22;;;9.23;94.53
29315;BME280;16320;53.954;9.506;2023-04-03T16:36:26;102864.94;;;9.14;87.42
29315;BME280;16320;53.954;9.506;2023-04-03T16:39:30;102863.47;;;8.85;84.54
29315;BME280;16320;53.954;9.506;2023-04-03T16:42:34;102869.56;;;8.90;99.21
29315;BME280;16320;53.954;9.506;2023-04-03T16:45:41;102874.00;;;9.58;89.43
29315;BME280;16320;53.954;9.506;2023-04-03T16:48:46;102878.66;;;9.38;81.54
29315;BME280;16320;53.954;9.506;2023-04-03T16:51:51;102874.38;;;9.94;83.71
29315;BME280;16320;53.954;9.506;2023-04-03T16:54:55;102874.50;;;10.44;83.12
29315;BME280;16320;53.954;9.506;2023-04-03T16:58:02;102870.75;;;11.51;72.72
29315;BME280;16320;53.954;9.506;2023-04-03T17:01:16;102871.50;;;12.34;60.17
29315;BME280;16320;53.954;9.506;2023-04-03T17:04:21;102869.88;;;12.29;66.14
29315;BME280;16320;53.954;9.506;2023-04-03T17:07:26;102875.84;;;12.37;59.87
29315;BME280;16320;53.954;9.506;2023-04-03T17:10:30;102877.50;;;11.63;54.03
29315;BME280;16320;53.954;9.506;2023-04-03T17:13:35;102876.41;;;10.36;60.28
29315;BME280;16320;53.954;9.506;2023-04-03T17:16:40;102881.38;;;9.28;82.63
29315;BME280;16320;53.954;9.506;2023-04-03T17:19:45;102881.31;;;8.46;100.00
29315;BME280;16320;53.954;9.506;2023-04-03T17:22:49;102891.25;;;7.98;100.00
29315;BME280;16320;53.954;9.506;2023-04-03T17:25:54;102887.91;;;7.65;100.00
29315;BME280;16320;53.954;9.506;2023-04-03T17:28:59;102892.41;;;7.33;100.00